sensor_id;sensor_type;location;lat;lon;timestamp;temperature;humidity
8537;DHT22;4306;50.210;10.628;2023-10-08T00:02:04;15.20;99.90
8537;DHT22;4306;50.210;10.628;2023-10-08T00:04:32;15.30;99.90
8537;DHT22;4306;50.210;10.628;2023-10-08T00:07:02;15.20;99.90
8537;DHT22;4306;50.210;10.628;2023-10-08T00:09:30;15.20;99.90
8537;DHT22;4306;50.210;10.628;2023-10-08T00:12:03;15.20;99.90
8537;DHT22;4306;50.210;10.628;2023-10-08T00:14:30;15.20;99.90
8537;DHT22;4306;50.210;10.628;2023-10-08T00:16:58;15.20;99.90
8537;DHT22;4306;50.210;10.628;2023-10-08T00:19:25;15.20;99.90
8537;DHT22;4306;50.210;10.628;2023-10-08T00:21:58;15.10;99.90
8537;DHT22;4306;50.210;10.628;2023-10-08T00:24:30;15.10;99.90
8537;DHT22;4306;50.210;10.628;2023-10-08T00:26:58;15.10;99.90
8537;DHT22;4306;50.210;10.628;2023-10-08T00:29:27;15.10;99.90
8537;DHT22;4306;50.210;10.628;2023-10-08T00:31:57;15.10;99.90
8537;DHT22;4306;50.210;10.628;2023-10-08T00:34:24;15.30;99.90
8537;DHT22;4306;50.210;10.628;2023-10-08T00:36:52;15.10;99.90
8537;DHT22;4306;50.210;10.628;2023-10-08T00:39:19;15.10;99.90
8537;DHT22;4306;50.210;10.628;2023-10-08T00:41:50;15.10;99.90
8537;DHT22;4306;50.210;10.628;2023-10-08T00:44:20;15.10;99.90
8537;DHT22;4306;50.210;10.628;2023-10-08T00:46:56;15.10;99.90
8537;DHT22;4306;50.210;10.628;2023-10-08T00:49:27;15.00;99.90
8537;DHT22;4306;50.210;10.628;2023-10-08T00:52:14;14.90;99.90
8537;DHT22;4306;50.210;10.628;2023-10-08T00:54:55;15.00;99.90
8537;DHT22;4306;50.210;10.628;2023-10-08T00:57:33;15.10;99.90
8537;DHT22;4306;50.210;10.628;2023-10-08T01:00:03;15.10;99.90
8537;DHT22;4306;50.210;10.628;2023-10-08T01:02:33;15.00;99.90
8537;DHT22;4306;50.210;10.628;2023-10-08T01:05:12;15.00;99.90
8537;DHT22;4306;50.210;10.628;2023-10-08T01:07:40;15.00;99.90
8537;DHT22;4306;50.210;10.628;2023-10-08T01:10:10;15.00;99.90
8537;DHT22;4306;50.210;10.628;2023-10-08T01:12:39;15.00;99.90
8537;DHT22;4306;50.210;10.628;2023-10-08T01:15:20;14.80;99.90
8537;DHT22;4306;50.210;10.628;2023-10-08T01:17:55;14.90;99.90
8537;DHT22;4306;50.210;10.628;2023-10-08T01:20:26;14.90;99.90
8537;DHT22;4306;50.210;10.628;2023-10-08T01:23:01;14.60;99.90
8537;DHT22;4306;50.210;10.628;2023-10-08T01:25:30;14.90;99.90
8537;DHT22;4306;50.210;10.628;2023-10-08T01:27:57;14.90;99.90
8537;DHT22;4306;50.210;10.628;2023-10-08T01:30:26;14.90;99.90
8537;DHT22;4306;50.210;10.628;2023-10-08T01:32:59;14.90;99.90
8537;DHT22;4306;50.210;10.628;2023-10-08T01:35:28;14.90;99.90
8537;DHT22;4306;50.210;10.628;2023-10-08T01:37:57;14.90;99.90
8537;DHT22;4306;50.210;10.628;2023-10-08T01:40:27;15.00;99.90
8537;DHT22;4306;50.210;10.628;2023-10-08T01:42:55;15.00;99.90
8537;DHT22;4306;50.210;10.628;2023-10-08T01:45:25;15.00;99.90
8537;DHT22;4306;50.210;10.628;2023-10-08T01:47:52;15.10;99.90
8537;DHT22;4306;50.210;10.628;2023-10-08T01:50:20;14.90;99.90
8537;DHT22;4306;50.210;10.628;2023-10-08T01:52:48;15.00;99.90
8537;DHT22;4306;50.210;10.628;2023-10-08T01:55:14;14.80;99.90
8537;DHT22;4306;50.210;10.628;2023-10-08T01:57:47;15.00;99.90
8537;DHT22;4306;50.210;10.628;2023-10-08T02:00:15;15.00;99.90
8537;DHT22;4306;50.210;10.628;2023-10-08T02:02:45;14.90;99.90
8537;DHT22;4306;50.210;10.628;2023-10-08T02:05:12;15.00;99.90
8537;DHT22;4306;50.210;10.628;2023-10-08T02:07:40;15.00;99.90
8537;DHT22;4306;50.210;10.628;2023-10-08T02:10:08;15.00;99.90
8537;DHT22;4306;50.210;10.628;2023-10-08T02:12:36;15.00;99.90
8537;DHT22;4306;50.210;10.628;2023-10-08T02:15:05;14.80;99.90
8537;DHT22;4306;50.210;10.628;2023-10-08T02:17:32;15.00;99.90
8537;DHT22;4306;50.210;10.628;2023-10-08T02:19:59;14.90;99.90
8537;DHT22;4306;50.210;10.628;2023-10-08T02:22:30;14.90;99.90
8537;DHT22;4306;50.210;10.628;2023-10-08T02:24:57;14.80;99.90
8537;DHT22;4306;50.210;10.628;2023-10-08T02:27:26;14.90;99.90
8537;DHT22;4306;50.210;10.628;2023-10-08T02:29:53;14.80;99.90
8537;DHT22;4306;50.210;10.628;2023-10-08T02:32:22;14.90;99.90
8537;DHT22;4306;50.210;10.628;2023-10-08T02:34:49;14.70;99.90
8537;DHT22;4306;50.210;10.628;2023-10-08T02:37:16;14.70;99.90
8537;DHT22;4306;50.210;10.628;2023-10-08T02:39:45;14.70;99.90
8537;DHT22;4306;50.210;10.628;2023-10-08T02:42:12;15.00;99.90
8537;DHT22;4306;50.210;10.628;2023-10-08T02:44:40;14.70;99.90
8537;DHT22;4306;50.210;10.628;2023-10-08T02:47:08;14.70;99.90
8537;DHT22;4306;50.210;10.628;2023-10-08T02:49:38;14.70;99.90
8537;DHT22;4306;50.210;10.628;2023-10-08T02:52:07;14.70;99.90
8537;DHT22;4306;50.210;10.628;2023-10-08T02:54:35;14.70;99.90
8537;DHT22;4306;50.210;10.628;2023-10-08T02:57:03;14.70;99.90
8537;DHT22;4306;50.210;10.628;2023-10-08T02:59:36;14.60;99.90
8537;DHT22;4306;50.210;10.628;2023-10-08T03:02:06;14.60;99.90
8537;DHT22;4306;50.210;10.628;2023-10-08T03:04:40;14.70;99.90
8537;DHT22;4306;50.210;10.628;2023-10-08T03:07:08;14.60;99.90
8537;DHT22;4306;50.210;10.628;2023-10-08T03:09:38;14.60;99.90
8537;DHT22;4306;50.210;10.628;2023-10-08T03:12:07;14.50;99.90
8537;DHT22;4306;50.210;10.628;2023-10-08T03:14:36;14.50;99.90
8537;DHT22;4306;50.210;10.628;2023-10-08T03:17:14;14.60;99.90
8537;DHT22;4306;50.210;10.628;2023-10-08T03:19:47;14.60;99.90
8537;DHT22;4306;50.210;10.628;2023-10-08T03:22:13;14.50;99.90
8537;DHT22;4306;50.210;10.628;2023-10-08T03:24:44;14.40;99.90
8537;DHT22;4306;50.210;10.628;2023-10-08T03:27:14;14.40;99.90
8537;DHT22;4306;50.210;10.628;2023-10-08T03:29:45;14.30;99.90
8537;DHT22;4306;50.210;10.628;2023-10-08T03:32:14;14.40;99.90
8537;DHT22;4306;50.210;10.628;2023-10-08T03:34:44;14.50;99.90
8537;DHT22;4306;50.210;10.628;2023-10-08T03:37:13;14.50;99.90
8537;DHT22;4306;50.210;10.628;2023-10-08T03:39:47;14.60;99.90
8537;DHT22;4306;50.210;10.628;2023-10-08T03:42:26;14.60;99.90
8537;DHT22;4306;50.210;10.628;2023-10-08T03:44:59;14.70;99.90
8537;DHT22;4306;50.210;10.628;2023-10-08T03:47:36;14.80;99.90
8537;DHT22;4306;50.210;10.628;2023-10-08T03:50:04;14.80;99.90
8537;DHT22;4306;50.210;10.628;2023-10-08T03:52:36;14.90;99.90
8537;DHT22;4306;50.210;10.628;2023-10-08T03:55:05;15.10;99.90
8537;DHT22;4306;50.210;10.628;2023-10-08T03:57:46;14.90;99.90
8537;DHT22;4306;50.210;10.628;2023-10-08T04:00:22;15.00;99.90
8537;DHT22;4306;50.210;10.628;2023-10-08T04:02:54;15.00;99.90
8537;DHT22;4306;50.210;10.628;2023-10-08T04:05:26;15.00;99.90
8537;DHT22;4306;50.210;10.628;2023-10-08T04:08:01;15.00;99.90
8537;DHT22;4306;50.210;10.628;2023-10-08T04:10:50;15.00;99.90
8537;DHT22;4306;50.210;10.628;2023-10-08T04:13:30;15.00;99.90
8537;DHT22;4306;50.210;10.628;2023-10-08T04:15:57;15.00;99.90
8537;DHT22;4306;50.210;10.628;2023-10-08T04:18:24;15.40;99.90
8537;DHT22;4306;50.210;10.628;2023-10-08T04:20:53;15.10;99.90
8537;DHT22;4306;50.210;10.628;2023-10-08T04:23:32;15.10;99.90
8537;DHT22;4306;50.210;10.628;2023-10-08T04:25:59;15.10;99.90
8537;DHT22;4306;50.210;10.628;2023-10-08T04:28:26;15.30;99.90
8537;DHT22;4306;50.210;10.628;2023-10-08T04:31:00;15.10;99.90
8537;DHT22;4306;50.210;10.628;2023-10-08T04:33:40;15.50;99.90
8537;DHT22;4306;50.210;10.628;2023-10-08T04:36:08;15.20;99.90
8537;DHT22;4306;50.210;10.628;2023-10-08T04:38:36;15.20;99.90
8537;DHT22;4306;50.210;10.628;2023-10-08T04:41:06;15.10;99.90
8537;DHT22;4306;50.210;10.628;2023-10-08T04:43:35;15.10;99.90
8537;DHT22;4306;50.210;10.628;2023-10-08T04:46:04;15.10;99.90
8537;DHT22;4306;50.210;10.628;2023-10-08T04:48:44;15.10;99.90
8537;DHT22;4306;50.210;10.628;2023-10-08T04:51:11;15.10;99.90
8537;DHT22;4306;50.210;10.628;2023-10-08T04:53:41;15.10;99.90
8537;DHT22;4306;50.210;10.628;2023-10-08T04:56:11;15.10;99.90
8537;DHT22;4306;50.210;10.628;2023-10-08T04:58:42;15.00;99.90
8537;DHT22;4306;50.210;10.628;2023-10-08T05:01:12;15.10;99.90
8537;DHT22;4306;50.210;10.628;2023-10-08T05:03:47;15.00;99.90
8537;DHT22;4306;50.210;10.628;2023-10-08T05:06:34;15.00;99.90
8537;DHT22;4306;50.210;10.628;2023-10-08T05:09:27;15.00;99.90
8537;DHT22;4306;50.210;10.628;2023-10-08T05:12:12;15.00;99.90
8537;DHT22;4306;50.210;10.628;2023-10-08T05:14:56;15.00;99.90
8537;DHT22;4306;50.210;10.628;2023-10-08T05:17:43;15.00;99.90
8537;DHT22;4306;50.210;10.628;2023-10-08T05:20:23;15.00;99.90
8537;DHT22;4306;50.210;10.628;2023-10-08T05:23:07;15.00;99.90
8537;DHT22;4306;50.210;10.628;2023-10-08T05:25:47;14.90;99.90
8537;DHT22;4306;50.210;10.628;2023-10-08T05:28:23;14.90;99.90
8537;DHT22;4306;50.210;10.628;2023-10-08T05:30:51;14.90;99.90
8537;DHT22;4306;50.210;10.628;2023-10-08T05:33:20;14.90;99.90
8537;DHT22;4306;50.210;10.628;2023-10-08T05:36:09;14.90;99.90
8537;DHT22;4306;50.210;10.628;2023-10-08T05:38:43;14.90;99.90
8537;DHT22;4306;50.210;10.628;2023-10-08T05:41:27;14.90;99.90
8537;DHT22;4306;50.210;10.628;2023-10-08T05:43:54;14.90;99.90
8537;DHT22;4306;50.210;10.628;2023-10-08T05:46:38;14.90;99.90
8537;DHT22;4306;50.210;10.628;2023-10-08T05:49:32;15.00;99.90
8537;DHT22;4306;50.210;10.628;2023-10-08T05:52:07;15.00;99.90
8537;DHT22;4306;50.210;10.628;2023-10-08T05:54:54;15.00;99.90
8537;DHT22;4306;50.210;10.628;2023-10-08T05:57:41;15.00;99.90
8537;DHT22;4306;50.210;10.628;2023-10-08T06:00:13;15.00;99.90
8537;DHT22;4306;50.210;10.628;2023-10-08T06:02:57;15.00;99.90
8537;DHT22;4306;50.210;10.628;2023-10-08T06:05:36;15.00;99.90
8537;DHT22;4306;50.210;10.628;2023-10-08T06:08:11;15.20;99.90
8537;DHT22;4306;50.210;10.628;2023-10-08T06:10:38;15.10;99.90
8537;DHT22;4306;50.210;10.628;2023-10-08T06:13:23;15.00;99.90
8537;DHT22;4306;50.210;10.628;2023-10-08T06:16:10;15.00;99.90
8537;DHT22;4306;50.210;10.628;2023-10-08T06:18:56;15.00;99.90
8537;DHT22;4306;50.210;10.628;2023-10-08T06:21:23;14.90;99.90
8537;DHT22;4306;50.210;10.628;2023-10-08T06:23:48;15.10;99.90
8537;DHT22;4306;50.210;10.628;2023-10-08T06:26:19;15.40;99.90
8537;DHT22;4306;50.210;10.628;2023-10-08T06:28:52;15.10;99.90
8537;DHT22;4306;50.210;10.628;2023-10-08T06:31:23;15.10;99.90
8537;DHT22;4306;50.210;10.628;2023-10-08T06:33:50;15.10;99.90
8537;DHT22;4306;50.210;10.628;2023-10-08T06:36:17;15.00;99.90
8537;DHT22;4306;50.210;10.628;2023-10-08T06:38:49;15.10;99.90
8537;DHT22;4306;50.210;10.628;2023-10-08T06:41:17;15.20;99.90
8537;DHT22;4306;50.210;10.628;2023-10-08T06:43:45;15.20;99.90
8537;DHT22;4306;50.210;10.628;2023-10-08T06:46:16;15.10;99.90
8537;DHT22;4306;50.210;10.628;2023-10-08T06:48:47;15.50;99.90
8537;DHT22;4306;50.210;10.628;2023-10-08T06:51:16;15.20;99.90
8537;DHT22;4306;50.210;10.628;2023-10-08T06:53:45;15.20;99.90
8537;DHT22;4306;50.210;10.628;2023-10-08T06:56:13;15.20;99.90
8537;DHT22;4306;50.210;10.628;2023-10-08T06:58:41;15.20;99.90
8537;DHT22;4306;50.210;10.628;2023-10-08T07:01:11;15.30;99.90
8537;DHT22;4306;50.210;10.628;2023-10-08T07:03:40;15.40;99.90
8537;DHT22;4306;50.210;10.628;2023-10-08T07:06:07;15.40;99.90
8537;DHT22;4306;50.210;10.628;2023-10-08T07:08:51;15.70;99.90
8537;DHT22;4306;50.210;10.628;2023-10-08T07:11:21;15.70;99.90
8537;DHT22;4306;50.210;10.628;2023-10-08T07:13:48;15.50;99.90
8537;DHT22;4306;50.210;10.628;2023-10-08T07:16:16;15.50;99.90
8537;DHT22;4306;50.210;10.628;2023-10-08T07:18:45;15.50;99.90
8537;DHT22;4306;50.210;10.628;2023-10-08T07:21:17;15.60;99.90
8537;DHT22;4306;50.210;10.628;2023-10-08T07:23:44;15.60;99.90
8537;DHT22;4306;50.210;10.628;2023-10-08T07:26:22;15.70;99.90
8537;DHT22;4306;50.210;10.628;2023-10-08T07:28:51;15.80;99.90
8537;DHT22;4306;50.210;10.628;2023-10-08T07:31:20;15.90;99.90
8537;DHT22;4306;50.210;10.628;2023-10-08T07:33:49;15.90;99.90
8537;DHT22;4306;50.210;10.628;2023-10-08T07:36:22;15.90;99.90
8537;DHT22;4306;50.210;10.628;2023-10-08T07:38:51;16.00;99.90
8537;DHT22;4306;50.210;10.628;2023-10-08T07:41:18;16.10;99.90
8537;DHT22;4306;50.210;10.628;2023-10-08T07:43:47;16.10;99.90
8537;DHT22;4306;50.210;10.628;2023-10-08T07:46:21;16.10;99.90
8537;DHT22;4306;50.210;10.628;2023-10-08T07:48:50;16.20;99.90
8537;DHT22;4306;50.210;10.628;2023-10-08T07:51:17;16.20;99.90
8537;DHT22;4306;50.210;10.628;2023-10-08T07:53:45;16.30;99.90
8537;DHT22;4306;50.210;10.628;2023-10-08T07:56:12;16.30;99.90
8537;DHT22;4306;50.210;10.628;2023-10-08T07:58:39;16.40;99.90
8537;DHT22;4306;50.210;10.628;2023-10-08T08:01:07;16.40;99.90
8537;DHT22;4306;50.210;10.628;2023-10-08T08:03:36;16.60;99.90
8537;DHT22;4306;50.210;10.628;2023-10-08T08:06:05;16.40;99.90
8537;DHT22;4306;50.210;10.628;2023-10-08T08:08:33;16.50;99.90
8537;DHT22;4306;50.210;10.628;2023-10-08T08:11:02;16.50;99.90
8537;DHT22;4306;50.210;10.628;2023-10-08T08:13:33;16.60;99.90
8537;DHT22;4306;50.210;10.628;2023-10-08T08:16:00;16.60;99.90
8537;DHT22;4306;50.210;10.628;2023-10-08T08:18:36;16.70;99.90
8537;DHT22;4306;50.210;10.628;2023-10-08T08:21:08;16.70;99.90
8537;DHT22;4306;50.210;10.628;2023-10-08T08:23:40;16.80;99.90
8537;DHT22;4306;50.210;10.628;2023-10-08T08:26:07;16.80;99.90
8537;DHT22;4306;50.210;10.628;2023-10-08T08:28:38;16.80;99.90
8537;DHT22;4306;50.210;10.628;2023-10-08T08:31:06;16.80;99.90
8537;DHT22;4306;50.210;10.628;2023-10-08T08:33:40;16.90;99.90
8537;DHT22;4306;50.210;10.628;2023-10-08T08:36:20;17.10;99.90
8537;DHT22;4306;50.210;10.628;2023-10-08T08:38:47;16.90;99.90
8537;DHT22;4306;50.210;10.628;2023-10-08T08:41:15;17.00;99.90
8537;DHT22;4306;50.210;10.628;2023-10-08T08:43:46;17.00;99.90
8537;DHT22;4306;50.210;10.628;2023-10-08T08:46:14;17.10;99.90
8537;DHT22;4306;50.210;10.628;2023-10-08T08:48:42;17.10;99.90
8537;DHT22;4306;50.210;10.628;2023-10-08T08:51:10;17.20;99.90
8537;DHT22;4306;50.210;10.628;2023-10-08T08:53:39;17.30;99.90
8537;DHT22;4306;50.210;10.628;2023-10-08T08:56:08;17.20;99.90
8537;DHT22;4306;50.210;10.628;2023-10-08T08:58:36;17.40;99.90
8537;DHT22;4306;50.210;10.628;2023-10-08T09:01:06;17.40;99.90
8537;DHT22;4306;50.210;10.628;2023-10-08T09:03:35;17.30;99.90
8537;DHT22;4306;50.210;10.628;2023-10-08T09:06:03;17.40;99.90
8537;DHT22;4306;50.210;10.628;2023-10-08T09:08:33;17.40;99.90
8537;DHT22;4306;50.210;10.628;2023-10-08T09:11:02;17.60;99.90
8537;DHT22;4306;50.210;10.628;2023-10-08T09:13:30;17.60;99.90
8537;DHT22;4306;50.210;10.628;2023-10-08T09:16:02;17.50;99.90
8537;DHT22;4306;50.210;10.628;2023-10-08T09:18:30;17.70;99.90
8537;DHT22;4306;50.210;10.628;2023-10-08T09:21:07;17.60;99.90
8537;DHT22;4306;50.210;10.628;2023-10-08T09:23:39;17.60;99.90
8537;DHT22;4306;50.210;10.628;2023-10-08T09:26:10;17.50;99.90
8537;DHT22;4306;50.210;10.628;2023-10-08T09:28:39;17.50;99.90
8537;DHT22;4306;50.210;10.628;2023-10-08T09:31:10;17.60;99.90
8537;DHT22;4306;50.210;10.628;2023-10-08T09:33:37;17.90;99.90
8537;DHT22;4306;50.210;10.628;2023-10-08T09:36:04;17.60;99.90
8537;DHT22;4306;50.210;10.628;2023-10-08T09:38:33;17.60;99.90
8537;DHT22;4306;50.210;10.628;2023-10-08T09:41:00;17.40;99.90
8537;DHT22;4306;50.210;10.628;2023-10-08T09:43:29;17.50;99.90
8537;DHT22;4306;50.210;10.628;2023-10-08T09:46:03;17.50;99.90
8537;DHT22;4306;50.210;10.628;2023-10-08T09:48:35;17.40;99.90
8537;DHT22;4306;50.210;10.628;2023-10-08T09:51:03;17.50;99.90
8537;DHT22;4306;50.210;10.628;2023-10-08T09:53:41;17.60;99.90
8537;DHT22;4306;50.210;10.628;2023-10-08T09:56:13;17.40;99.90
8537;DHT22;4306;50.210;10.628;2023-10-08T09:58:43;17.40;99.90
8537;DHT22;4306;50.210;10.628;2023-10-08T10:01:14;17.40;99.90
8537;DHT22;4306;50.210;10.628;2023-10-08T10:03:43;17.40;99.90
8537;DHT22;4306;50.210;10.628;2023-10-08T10:06:13;17.40;99.90
8537;DHT22;4306;50.210;10.628;2023-10-08T10:08:42;17.50;99.90
8537;DHT22;4306;50.210;10.628;2023-10-08T10:11:09;17.40;99.90
8537;DHT22;4306;50.210;10.628;2023-10-08T10:13:40;17.40;99.90
8537;DHT22;4306;50.210;10.628;2023-10-08T10:16:09;17.30;99.90
8537;DHT22;4306;50.210;10.628;2023-10-08T10:18:36;17.40;99.90
8537;DHT22;4306;50.210;10.628;2023-10-08T10:21:26;17.30;99.90
8537;DHT22;4306;50.210;10.628;2023-10-08T10:23:53;16.70;99.90
8537;DHT22;4306;50.210;10.628;2023-10-08T10:26:23;16.20;99.90
8537;DHT22;4306;50.210;10.628;2023-10-08T10:29:22;16.00;99.90
8537;DHT22;4306;50.210;10.628;2023-10-08T10:31:53;16.20;99.90
8537;DHT22;4306;50.210;10.628;2023-10-08T10:34:24;16.00;99.90
8537;DHT22;4306;50.210;10.628;2023-10-08T10:36:54;15.80;99.90
8537;DHT22;4306;50.210;10.628;2023-10-08T10:39:28;15.60;99.90
8537;DHT22;4306;50.210;10.628;2023-10-08T10:41:57;15.80;99.90
8537;DHT22;4306;50.210;10.628;2023-10-08T10:44:27;15.90;99.90
8537;DHT22;4306;50.210;10.628;2023-10-08T10:46:57;16.10;99.90
8537;DHT22;4306;50.210;10.628;2023-10-08T10:49:47;16.00;99.90
8537;DHT22;4306;50.210;10.628;2023-10-08T10:52:19;15.90;99.90
8537;DHT22;4306;50.210;10.628;2023-10-08T10:55:01;16.10;99.90
8537;DHT22;4306;50.210;10.628;2023-10-08T10:57:46;15.90;99.90
8537;DHT22;4306;50.210;10.628;2023-10-08T11:00:20;15.90;99.90
8537;DHT22;4306;50.210;10.628;2023-10-08T11:03:14;15.80;99.90
8537;DHT22;4306;50.210;10.628;2023-10-08T11:05:53;16.10;99.90
8537;DHT22;4306;50.210;10.628;2023-10-08T11:08:21;16.40;99.90
8537;DHT22;4306;50.210;10.628;2023-10-08T11:10:49;16.10;99.90
8537;DHT22;4306;50.210;10.628;2023-10-08T11:13:18;15.70;99.90
8537;DHT22;4306;50.210;10.628;2023-10-08T11:15:46;15.60;99.90
8537;DHT22;4306;50.210;10.628;2023-10-08T11:18:20;15.60;99.90
8537;DHT22;4306;50.210;10.628;2023-10-08T11:20:48;15.60;99.90
8537;DHT22;4306;50.210;10.628;2023-10-08T11:23:33;15.70;99.90
8537;DHT22;4306;50.210;10.628;2023-10-08T11:26:02;15.60;99.90
8537;DHT22;4306;50.210;10.628;2023-10-08T11:28:30;15.50;99.90
8537;DHT22;4306;50.210;10.628;2023-10-08T11:31:00;15.20;99.90
8537;DHT22;4306;50.210;10.628;2023-10-08T11:33:35;15.50;99.90
8537;DHT22;4306;50.210;10.628;2023-10-08T11:36:03;15.50;99.90
8537;DHT22;4306;50.210;10.628;2023-10-08T11:38:38;15.40;99.90
8537;DHT22;4306;50.210;10.628;2023-10-08T11:41:11;15.50;99.90
8537;DHT22;4306;50.210;10.628;2023-10-08T11:43:48;15.50;99.90
8537;DHT22;4306;50.210;10.628;2023-10-08T11:46:22;15.20;99.90
8537;DHT22;4306;50.210;10.628;2023-10-08T11:48:52;15.20;99.90
8537;DHT22;4306;50.210;10.628;2023-10-08T11:51:23;15.30;99.90
8537;DHT22;4306;50.210;10.628;2023-10-08T11:53:50;15.60;99.90
8537;DHT22;4306;50.210;10.628;2023-10-08T11:56:17;15.50;99.90
8537;DHT22;4306;50.210;10.628;2023-10-08T11:58:48;15.20;99.90
8537;DHT22;4306;50.210;10.628;2023-10-08T12:01:17;15.20;99.90
8537;DHT22;4306;50.210;10.628;2023-10-08T12:03:44;15.10;99.90
8537;DHT22;4306;50.210;10.628;2023-10-08T12:06:12;15.00;99.90
8537;DHT22;4306;50.210;10.628;2023-10-08T12:08:44;15.00;99.90
8537;DHT22;4306;50.210;10.628;2023-10-08T12:11:15;14.70;99.90
8537;DHT22;4306;50.210;10.628;2023-10-08T12:13:43;14.80;99.90
8537;DHT22;4306;50.210;10.628;2023-10-08T12:16:12;14.90;99.90
8537;DHT22;4306;50.210;10.628;2023-10-08T12:18:46;14.70;99.90
8537;DHT22;4306;50.210;10.628;2023-10-08T12:21:20;14.80;99.90
8537;DHT22;4306;50.210;10.628;2023-10-08T12:23:47;14.80;99.90
8537;DHT22;4306;50.210;10.628;2023-10-08T12:26:15;14.80;99.90
8537;DHT22;4306;50.210;10.628;2023-10-08T12:28:44;14.70;99.90
8537;DHT22;4306;50.210;10.628;2023-10-08T12:31:12;14.70;99.90
8537;DHT22;4306;50.210;10.628;2023-10-08T12:33:41;14.80;99.90
8537;DHT22;4306;50.210;10.628;2023-10-08T12:36:10;15.00;99.90
8537;DHT22;4306;50.210;10.628;2023-10-08T12:38:39;15.00;99.90
8537;DHT22;4306;50.210;10.628;2023-10-08T12:41:08;14.80;99.90
8537;DHT22;4306;50.210;10.628;2023-10-08T12:43:39;14.70;99.90
8537;DHT22;4306;50.210;10.628;2023-10-08T12:46:08;14.40;99.90
8537;DHT22;4306;50.210;10.628;2023-10-08T12:48:43;14.80;99.90
8537;DHT22;4306;50.210;10.628;2023-10-08T12:51:13;14.90;99.90
8537;DHT22;4306;50.210;10.628;2023-10-08T12:53:41;14.80;99.90
8537;DHT22;4306;50.210;10.628;2023-10-08T12:56:16;15.00;99.90
8537;DHT22;4306;50.210;10.628;2023-10-08T12:58:47;14.90;99.90
8537;DHT22;4306;50.210;10.628;2023-10-08T13:01:14;15.00;99.90
8537;DHT22;4306;50.210;10.628;2023-10-08T13:03:43;15.00;99.90
8537;DHT22;4306;50.210;10.628;2023-10-08T13:06:13;15.00;99.90
8537;DHT22;4306;50.210;10.628;2023-10-08T13:08:49;15.20;99.90
8537;DHT22;4306;50.210;10.628;2023-10-08T13:11:18;15.30;99.90
8537;DHT22;4306;50.210;10.628;2023-10-08T13:13:49;15.40;99.90
8537;DHT22;4306;50.210;10.628;2023-10-08T13:16:15;15.40;99.90
8537;DHT22;4306;50.210;10.628;2023-10-08T13:18:42;15.40;99.90
8537;DHT22;4306;50.210;10.628;2023-10-08T13:21:09;15.40;99.90
8537;DHT22;4306;50.210;10.628;2023-10-08T13:23:36;15.50;99.90
8537;DHT22;4306;50.210;10.628;2023-10-08T13:26:04;15.80;99.90
8537;DHT22;4306;50.210;10.628;2023-10-08T13:28:33;15.50;99.90
8537;DHT22;4306;50.210;10.628;2023-10-08T13:31:00;15.60;99.90
8537;DHT22;4306;50.210;10.628;2023-10-08T13:33:35;15.60;99.90
8537;DHT22;4306;50.210;10.628;2023-10-08T13:36:05;15.60;99.90
8537;DHT22;4306;50.210;10.628;2023-10-08T13:38:33;15.60;99.90
8537;DHT22;4306;50.210;10.628;2023-10-08T13:41:00;15.60;99.90
8537;DHT22;4306;50.210;10.628;2023-10-08T13:43:33;15.60;99.90
8537;DHT22;4306;50.210;10.628;2023-10-08T13:46:01;15.50;99.90
8537;DHT22;4306;50.210;10.628;2023-10-08T13:48:30;15.80;99.90
8537;DHT22;4306;50.210;10.628;2023-10-08T13:50:59;15.70;99.90
8537;DHT22;4306;50.210;10.628;2023-10-08T13:53:26;15.60;99.90
8537;DHT22;4306;50.210;10.628;2023-10-08T13:55:56;15.60;99.90
8537;DHT22;4306;50.210;10.628;2023-10-08T13:58:23;15.60;99.90
8537;DHT22;4306;50.210;10.628;2023-10-08T14:00:52;15.50;99.90
8537;DHT22;4306;50.210;10.628;2023-10-08T14:03:19;15.50;99.90
8537;DHT22;4306;50.210;10.628;2023-10-08T14:05:47;15.60;99.90
8537;DHT22;4306;50.210;10.628;2023-10-08T14:08:16;15.40;99.90
8537;DHT22;4306;50.210;10.628;2023-10-08T14:10:43;15.30;99.90
8537;DHT22;4306;50.210;10.628;2023-10-08T14:13:10;15.40;99.90
8537;DHT22;4306;50.210;10.628;2023-10-08T14:15:37;15.50;99.90
8537;DHT22;4306;50.210;10.628;2023-10-08T14:18:11;15.40;99.90
8537;DHT22;4306;50.210;10.628;2023-10-08T14:20:43;15.60;99.90
8537;DHT22;4306;50.210;10.628;2023-10-08T14:23:12;15.40;99.90
8537;DHT22;4306;50.210;10.628;2023-10-08T14:25:42;15.70;99.90
8537;DHT22;4306;50.210;10.628;2023-10-08T14:28:10;15.50;99.90
8537;DHT22;4306;50.210;10.628;2023-10-08T14:30:48;15.40;99.90
8537;DHT22;4306;50.210;10.628;2023-10-08T14:33:21;15.10;99.90
8537;DHT22;4306;50.210;10.628;2023-10-08T14:35:52;15.20;99.90
8537;DHT22;4306;50.210;10.628;2023-10-08T14:38:37;15.20;99.90
8537;DHT22;4306;50.210;10.628;2023-10-08T14:41:21;15.30;99.90
8537;DHT22;4306;50.210;10.628;2023-10-08T14:44:02;15.20;99.90
8537;DHT22;4306;50.210;10.628;2023-10-08T14:46:29;15.30;99.90
8537;DHT22;4306;50.210;10.628;2023-10-08T14:48:59;15.30;99.90
8537;DHT22;4306;50.210;10.628;2023-10-08T14:51:27;15.30;99.90
8537;DHT22;4306;50.210;10.628;2023-10-08T14:53:55;15.20;99.90
8537;DHT22;4306;50.210;10.628;2023-10-08T14:56:22;15.10;99.90
8537;DHT22;4306;50.210;10.628;2023-10-08T14:58:51;15.10;99.90
8537;DHT22;4306;50.210;10.628;2023-10-08T15:01:17;15.40;99.90
8537;DHT22;4306;50.210;10.628;2023-10-08T15:03:45;15.20;99.90
8537;DHT22;4306;50.210;10.628;2023-10-08T15:06:13;15.20;99.90
8537;DHT22;4306;50.210;10.628;2023-10-08T15:08:40;15.30;99.90
8537;DHT22;4306;50.210;10.628;2023-10-08T15:11:08;15.20;99.90
8537;DHT22;4306;50.210;10.628;2023-10-08T15:13:36;15.20;99.90
8537;DHT22;4306;50.210;10.628;2023-10-08T15:16:04;15.30;99.90
8537;DHT22;4306;50.210;10.628;2023-10-08T15:18:31;15.20;99.90
8537;DHT22;4306;50.210;10.628;2023-10-08T15:21:08;15.20;99.90
8537;DHT22;4306;50.210;10.628;2023-10-08T15:23:36;15.20;99.90
8537;DHT22;4306;50.210;10.628;2023-10-08T15:26:03;15.20;99.90
8537;DHT22;4306;50.210;10.628;2023-10-08T15:28:30;15.20;99.90
8537;DHT22;4306;50.210;10.628;2023-10-08T15:30:58;15.20;99.90
8537;DHT22;4306;50.210;10.628;2023-10-08T15:33:25;15.20;99.90
8537;DHT22;4306;50.210;10.628;2023-10-08T15:35:52;15.10;99.90
8537;DHT22;4306;50.210;10.628;2023-10-08T15:38:19;15.20;99.90
8537;DHT22;4306;50.210;10.628;2023-10-08T15:40:47;15.20;99.90
8537;DHT22;4306;50.210;10.628;2023-10-08T15:43:15;15.20;99.90
8537;DHT22;4306;50.210;10.628;2023-10-08T15:45:42;15.30;99.90
8537;DHT22;4306;50.210;10.628;2023-10-08T15:48:10;15.20;99.90
8537;DHT22;4306;50.210;10.628;2023-10-08T15:50:37;15.20;99.90
8537;DHT22;4306;50.210;10.628;2023-10-08T15:53:05;15.20;99.90
8537;DHT22;4306;50.210;10.628;2023-10-08T15:55:32;15.20;99.90
8537;DHT22;4306;50.210;10.628;2023-10-08T15:58:00;15.20;99.90
8537;DHT22;4306;50.210;10.628;2023-10-08T16:00:27;15.20;99.90
8537;DHT22;4306;50.210;10.628;2023-10-08T16:02:54;15.20;99.90
8537;DHT22;4306;50.210;10.628;2023-10-08T16:05:21;15.20;99.90
8537;DHT22;4306;50.210;10.628;2023-10-08T16:07:48;15.40;99.90
8537;DHT22;4306;50.210;10.628;2023-10-08T16:10:15;15.10;99.90